Time;durP1;ratioP1;P1;durP2;ratioP2;P2;SDS_P1;SDS_P2;PMS_P1;PMS_P2;Temp;Humidity;BMP_temperature;BMP_pressure;BME280_temperature;BME280_humidity;BME280_pressure;Samples;Min_cycle;Max_cycle;Signal;HPM_P1;HPM_P2
2022/03/06 00:04:36;;;;;;;8.20;5.20;;;;;;;;;;10619686;27;20440;-62
2022/03/06 00:09:36;;;;;;;12.10;5.20;;;;;;;;;;10619677;27;20102;-62
2022/03/06 00:14:38;;;;;;;10.87;5.10;;;;;;;;;;10619830;27;20054;-62
2022/03/06 00:19:38;;;;;;;8.50;5.10;;;;;;;;;;10620117;27;20451;-62
2022/03/06 00:24:38;;;;;;;9.80;5.20;;;;;;;;;;10619817;27;20031;-62
2022/03/06 00:29:39;;;;;;;9.67;5.47;;;;;;;;;;10619048;27;21021;-62
2022/03/06 00:34:39;;;;;;;10.05;5.53;;;;;;;;;;10620603;27;20031;-62
2022/03/06 00:39:40;;;;;;;12.50;5.50;;;;;;;;;;10619915;27;20558;-61
2022/03/06 00:44:40;;;;;;;11.43;5.93;;;;;;;;;;10616235;27;20487;-61
2022/03/06 00:49:40;;;;;;;7.07;4.80;;;;;;;;;;10616953;27;20056;-61
2022/03/06 00:54:41;;;;;;;8.47;5.20;;;;;;;;;;10619295;27;20423;-61
2022/03/06 00:59:41;;;;;;;7.72;5.30;;;;;;;;;;10618092;27;20023;-61
2022/03/06 01:04:41;;;;;;;8.47;5.00;;;;;;;;;;10619549;27;20122;-61
2022/03/06 01:09:42;;;;;;;8.37;5.17;;;;;;;;;;10618783;27;20019;-61
2022/03/06 01:14:42;;;;;;;10.00;5.37;;;;;;;;;;10618702;27;20496;-61
2022/03/06 01:19:43;;;;;;;10.90;5.03;;;;;;;;;;10618552;27;20442;-61
2022/03/06 01:24:43;;;;;;;8.20;5.13;;;;;;;;;;10618872;27;20054;-61
2022/03/06 01:29:44;;;;;;;8.10;4.87;;;;;;;;;;10618713;27;20023;-61
2022/03/06 01:34:44;;;;;;;9.18;4.97;;;;;;;;;;10617957;27;20443;-61
2022/03/06 01:39:45;;;;;;;6.22;4.40;;;;;;;;;;10617710;27;20130;-61
2022/03/06 01:44:46;;;;;;;7.87;4.73;;;;;;;;;;10617761;27;20031;-61
2022/03/06 01:49:47;;;;;;;7.20;4.75;;;;;;;;;;10614785;27;20331;-61
2022/03/06 01:54:47;;;;;;;8.60;4.63;;;;;;;;;;10617373;28;20020;-61
2022/03/06 01:59:47;;;;;;;7.27;5.17;;;;;;;;;;10614972;27;20475;-62
2022/03/06 02:04:48;;;;;;;7.50;4.60;;;;;;;;;;10617471;28;20034;-61
2022/03/06 02:09:48;;;;;;;7.03;5.07;;;;;;;;;;10617390;27;20443;-61
2022/03/06 02:14:52;;;;;;;11.13;5.17;;;;;;;;;;10617444;28;20027;-61
2022/03/06 02:20:00;;;;;;;9.27;5.30;;;;;;;;;;10617513;27;20791;-61
2022/03/06 02:25:04;;;;;;;8.05;4.55;;;;;;;;;;10617626;28;20081;-61
2022/03/06 02:30:13;;;;;;;8.25;4.70;;;;;;;;;;10617135;27;20019;-62
2022/03/06 02:35:14;;;;;;;6.35;4.53;;;;;;;;;;10598000;28;20023;-62
2022/03/06 02:40:16;;;;;;;6.25;4.47;;;;;;;;;;10616221;27;20058;-62
2022/03/06 02:45:18;;;;;;;7.47;4.65;;;;;;;;;;10616647;28;20282;-62
2022/03/06 02:50:20;;;;;;;6.93;4.72;;;;;;;;;;10616032;27;20103;-62
2022/03/06 02:55:21;;;;;;;7.93;5.18;;;;;;;;;;10623006;27;20046;-61
2022/03/06 03:00:24;;;;;;;5.43;4.47;;;;;;;;;;10602401;27;20051;-62
2022/03/06 03:05:25;;;;;;;5.65;4.20;;;;;;;;;;10623494;27;20031;-62
2022/03/06 03:10:26;;;;;;;5.30;4.45;;;;;;;;;;10620174;27;20055;-62
2022/03/06 03:15:26;;;;;;;7.43;4.35;;;;;;;;;;10623416;27;20104;-62
2022/03/06 03:20:27;;;;;;;6.20;4.87;;;;;;;;;;10623180;27;20106;-62
2022/03/06 03:25:27;;;;;;;7.43;4.57;;;;;;;;;;10604323;27;20463;-62
2022/03/06 03:30:28;;;;;;;6.22;4.85;;;;;;;;;;10622424;27;20115;-62
2022/03/06 03:35:29;;;;;;;5.82;4.82;;;;;;;;;;10622254;27;20258;-61
2022/03/06 03:40:29;;;;;;;6.30;4.65;;;;;;;;;;10621726;27;20491;-61
2022/03/06 03:45:29;;;;;;;6.13;4.37;;;;;;;;;;10621736;27;20019;-61
2022/03/06 03:50:30;;;;;;;6.65;4.50;;;;;;;;;;10621452;27;20526;-61
2022/03/06 03:55:30;;;;;;;6.15;4.60;;;;;;;;;;10621501;27;20059;-61
2022/03/06 04:00:31;;;;;;;5.55;4.38;;;;;;;;;;10620778;27;20551;-61
2022/03/06 04:05:31;;;;;;;6.63;4.72;;;;;;;;;;10617693;27;20066;-62
2022/03/06 04:10:32;;;;;;;6.63;4.50;;;;;;;;;;10617324;27;20026;-61
2022/03/06 04:15:32;;;;;;;6.07;4.38;;;;;;;;;;10620327;27;21008;-61
2022/03/06 04:20:32;;;;;;;7.20;4.47;;;;;;;;;;10620720;27;20053;-62
2022/03/06 04:25:34;;;;;;;7.75;4.72;;;;;;;;;;10620597;27;20454;-61
2022/03/06 04:30:34;;;;;;;4.82;4.32;;;;;;;;;;10619899;27;20027;-60
2022/03/06 04:35:35;;;;;;;5.40;4.25;;;;;;;;;;10620066;27;20466;-61
2022/03/06 04:40:35;;;;;;;6.68;4.90;;;;;;;;;;10619463;27;20530;-60
2022/03/06 04:45:36;;;;;;;5.07;3.93;;;;;;;;;;10619278;27;20023;-61
2022/03/06 04:50:36;;;;;;;5.90;4.33;;;;;;;;;;10618912;27;20580;-61
2022/03/06 04:55:36;;;;;;;4.50;4.10;;;;;;;;;;10618976;27;20054;-61
2022/03/06 05:00:37;;;;;;;5.27;4.20;;;;;;;;;;10618812;27;20506;-61
2022/03/06 05:05:37;;;;;;;5.63;4.15;;;;;;;;;;10618217;27;20447;-62
2022/03/06 05:10:38;;;;;;;5.37;4.37;;;;;;;;;;10615800;27;20102;-62
2022/03/06 05:15:38;;;;;;;6.97;4.53;;;;;;;;;;10614336;27;20941;-62
2022/03/06 05:20:39;;;;;;;5.68;3.97;;;;;;;;;;10618240;27;20125;-62
2022/03/06 05:25:39;;;;;;;5.40;4.23;;;;;;;;;;10617452;27;20079;-63
2022/03/06 05:30:39;;;;;;;7.10;4.43;;;;;;;;;;10617814;27;20509;-63
2022/03/06 05:35:40;;;;;;;6.47;4.32;;;;;;;;;;10617201;27;20495;-63
2022/03/06 05:40:40;;;;;;;10.07;4.88;;;;;;;;;;10616503;27;20047;-62
2022/03/06 05:45:41;;;;;;;7.57;4.10;;;;;;;;;;10617230;27;20029;-62
2022/03/06 05:50:41;;;;;;;5.57;4.30;;;;;;;;;;10616912;28;20028;-62
2022/03/06 05:55:41;;;;;;;5.50;4.07;;;;;;;;;;10617233;27;20450;-62
2022/03/06 06:00:42;;;;;;;8.27;4.90;;;;;;;;;;10617024;28;20054;-63
2022/03/06 06:05:43;;;;;;;6.53;4.60;;;;;;;;;;10617164;27;20522;-62
2022/03/06 06:10:45;;;;;;;5.40;4.35;;;;;;;;;;10617105;28;20028;-62
2022/03/06 06:15:45;;;;;;;7.15;4.43;;;;;;;;;;10614186;27;20027;-62
2022/03/06 06:20:46;;;;;;;5.50;3.77;;;;;;;;;;10616924;28;20039;-62
2022/03/06 06:25:46;;;;;;;9.37;4.30;;;;;;;;;;10613844;27;20459;-62
2022/03/06 06:30:46;;;;;;;7.83;4.53;;;;;;;;;;10624859;27;20035;-62
2022/03/06 06:35:47;;;;;;;4.80;4.20;;;;;;;;;;10624737;27;20050;-63
2022/03/06 06:40:49;;;;;;;6.13;4.50;;;;;;;;;;10624578;27;20039;-62
2022/03/06 06:45:49;;;;;;;5.85;4.32;;;;;;;;;;10624349;27;20122;-62
2022/03/06 06:50:50;;;;;;;5.07;4.35;;;;;;;;;;10624885;27;20130;-62
2022/03/06 06:55:50;;;;;;;8.70;4.78;;;;;;;;;;10624040;27;20027;-62
2022/03/06 07:00:50;;;;;;;5.43;4.33;;;;;;;;;;10623731;27;20105;-62
2022/03/06 07:05:51;;;;;;;4.80;4.07;;;;;;;;;;10623525;27;21960;-62
2022/03/06 07:10:51;;;;;;;5.00;3.97;;;;;;;;;;10623341;27;20140;-62
2022/03/06 07:15:52;;;;;;;5.13;4.45;;;;;;;;;;10622685;27;20516;-62
2022/03/06 07:20:53;;;;;;;5.00;4.03;;;;;;;;;;10622829;27;20378;-62
2022/03/06 07:25:53;;;;;;;5.65;4.50;;;;;;;;;;10619669;27;20459;-62
2022/03/06 07:30:54;;;;;;;6.13;4.27;;;;;;;;;;10618906;27;20017;-62
2022/03/06 07:35:54;;;;;;;4.83;4.03;;;;;;;;;;10621912;27;20522;-63
2022/03/06 07:40:55;;;;;;;4.50;3.50;;;;;;;;;;10621086;27;20054;-62
2022/03/06 07:45:55;;;;;;;7.77;3.77;;;;;;;;;;10620981;27;20054;-62
2022/03/06 07:50:56;;;;;;;8.10;3.63;;;;;;;;;;10621132;27;20034;-62
2022/03/06 07:55:56;;;;;;;6.60;3.80;;;;;;;;;;10619265;27;20543;-62
2022/03/06 08:00:57;;;;;;;5.43;3.60;;;;;;;;;;10621198;27;20030;-62
2022/03/06 08:05:57;;;;;;;8.07;3.80;;;;;;;;;;10620307;27;20554;-62
2022/03/06 08:10:57;;;;;;;8.57;3.67;;;;;;;;;;10619879;27;20432;-62
2022/03/06 08:15:58;;;;;;;9.73;4.00;;;;;;;;;;10619710;27;20042;-62
2022/03/06 08:20:58;;;;;;;13.57;4.20;;;;;;;;;;10621096;27;20027;-62
2022/03/06 08:25:58;;;;;;;9.97;3.93;;;;;;;;;;10620115;27;20379;-63
2022/03/06 08:30:59;;;;;;;6.57;3.67;;;;;;;;;;10617274;27;20564;-62
2022/03/06 08:35:59;;;;;;;17.00;4.57;;;;;;;;;;10616692;27;20034;-62
2022/03/06 08:41:00;;;;;;;7.35;4.00;;;;;;;;;;10619653;27;20114;-62
2022/03/06 08:46:02;;;;;;;8.37;4.23;;;;;;;;;;10619416;27;20034;-62
2022/03/06 08:51:06;;;;;;;6.30;3.80;;;;;;;;;;10618479;27;20516;-62
2022/03/06 08:56:06;;;;;;;13.70;4.72;;;;;;;;;;10619192;27;20470;-62
2022/03/06 09:01:08;;;;;;;9.00;4.05;;;;;;;;;;10618541;27;20039;-62
2022/03/06 09:06:08;;;;;;;13.83;4.20;;;;;;;;;;10618367;27;20110;-62
2022/03/06 09:11:09;;;;;;;7.67;3.57;;;;;;;;;;10618540;27;20776;-62
2022/03/06 09:16:09;;;;;;;11.10;4.10;;;;;;;;;;10618817;27;20403;-61
2022/03/06 09:21:10;;;;;;;9.10;4.00;;;;;;;;;;10618769;27;20023;-61
2022/03/06 09:26:10;;;;;;;15.97;4.40;;;;;;;;;;10617968;27;20023;-62
2022/03/06 09:31:11;;;;;;;10.53;3.90;;;;;;;;;;10618458;27;20467;-62
2022/03/06 09:36:11;;;;;;;7.97;4.22;;;;;;;;;;10614283;27;21045;-62
2022/03/06 09:41:16;;;;;;;8.77;4.63;;;;;;;;;;10613733;27;20035;-62
2022/03/06 09:46:19;;;;;;;8.77;4.28;;;;;;;;;;10618070;27;20506;-61
2022/03/06 09:51:20;;;;;;;5.10;3.53;;;;;;;;;;10617637;28;20044;-61
2022/03/06 09:56:21;;;;;;;12.55;4.80;;;;;;;;;;10617448;27;20072;-62
2022/03/06 10:01:21;;;;;;;13.17;4.20;;;;;;;;;;10619952;27;20403;-62
2022/03/06 10:06:23;;;;;;;12.10;4.00;;;;;;;;;;10626026;27;20487;-62
2022/03/06 10:11:27;;;;;;;5.65;4.00;;;;;;;;;;10626443;27;20026;-62
2022/03/06 10:16:29;;;;;;;11.57;4.20;;;;;;;;;;10625587;27;20030;-62
2022/03/06 10:21:32;;;;;;;6.20;4.22;;;;;;;;;;10625911;27;20035;-62
2022/03/06 10:26:32;;;;;;;12.85;4.18;;;;;;;;;;10625153;27;20023;-62
2022/03/06 10:31:34;;;;;;;7.55;3.47;;;;;;;;;;10625182;27;20023;-62
2022/03/06 10:36:37;;;;;;;7.47;3.70;;;;;;;;;;10624816;27;20027;-63
2022/03/06 10:41:39;;;;;;;8.10;4.20;;;;;;;;;;10621261;27;20045;-65
2022/03/06 10:46:41;;;;;;;19.55;4.95;;;;;;;;;;10624060;27;20030;-62
2022/03/06 10:51:47;;;;;;;30.65;5.90;;;;;;;;;;10620243;27;20105;-62
2022/03/06 10:56:51;;;;;;;13.98;5.65;;;;;;;;;;10624040;27;20019;-64
2022/03/06 11:01:52;;;;;;;17.48;4.90;;;;;;;;;;10623749;27;20153;-62
2022/03/06 11:06:53;;;;;;;8.50;4.53;;;;;;;;;;10623435;27;20019;-62
2022/03/06 11:11:53;;;;;;;14.93;5.00;;;;;;;;;;10604010;27;20116;-62
2022/03/06 11:16:54;;;;;;;14.15;5.38;;;;;;;;;;10624000;27;20447;-62
2022/03/06 11:22:21;;;;;;;10.65;5.13;;;;;;;;;;10622249;27;20033;-62
2022/03/06 11:27:40;;;;;;;7.57;4.57;;;;;;;;;;10622018;27;20031;-62
2022/03/06 11:32:41;;;;;;;14.02;5.15;;;;;;;;;;10604200;27;20203;-62
2022/03/06 11:37:56;;;;;;;11.65;4.47;;;;;;;;;;10621159;27;20699;-62
2022/03/06 11:42:57;;;;;;;9.35;4.47;;;;;;;;;;10620721;27;20023;-62
2022/03/06 11:47:58;;;;;;;11.57;4.80;;;;;;;;;;10620464;27;20438;-62
2022/03/06 11:52:58;;;;;;;10.73;3.77;;;;;;;;;;10618303;27;20034;-62
2022/03/06 11:57:59;;;;;;;7.05;4.35;;;;;;;;;;10618255;27;20592;-62
2022/03/06 12:03:01;;;;;;;12.93;4.20;;;;;;;;;;10621691;27;20020;-62
2022/03/06 12:08:01;;;;;;;10.13;3.92;;;;;;;;;;10621191;27;20294;-62
2022/03/06 12:13:02;;;;;;;14.93;4.82;;;;;;;;;;10621231;27;20541;-62
2022/03/06 12:18:03;;;;;;;10.23;5.37;;;;;;;;;;10620985;27;20021;-62
2022/03/06 12:23:06;;;;;;;11.75;5.20;;;;;;;;;;10620530;27;20470;-62
2022/03/06 12:28:07;;;;;;;17.00;4.82;;;;;;;;;;10620032;27;20371;-63
2022/03/06 12:33:38;;;;;;;9.57;4.70;;;;;;;;;;10619915;27;20031;-62
2022/03/06 12:38:39;;;;;;;18.45;5.15;;;;;;;;;;10619102;27;20092;-62
2022/03/06 12:43:48;;;;;;;16.30;4.90;;;;;;;;;;10619511;27;20354;-63
2022/03/06 12:48:48;;;;;;;14.80;4.80;;;;;;;;;;10619397;27;20019;-63
2022/03/06 12:53:49;;;;;;;12.52;4.30;;;;;;;;;;10619095;27;20027;-62
2022/03/06 12:58:49;;;;;;;12.50;3.77;;;;;;;;;;10593985;27;20042;-62
2022/03/06 13:03:50;;;;;;;10.43;4.43;;;;;;;;;;10618221;27;20038;-62
2022/03/06 13:08:50;;;;;;;11.13;4.70;;;;;;;;;;10619107;27;20988;-63
2022/03/06 13:14:02;;;;;;;12.85;4.05;;;;;;;;;;10618433;27;20428;-63
2022/03/06 13:19:05;;;;;;;10.30;4.03;;;;;;;;;;10618368;27;20462;-63
2022/03/06 13:24:09;;;;;;;6.30;3.97;;;;;;;;;;10618126;27;20035;-63
2022/03/06 13:29:14;;;;;;;10.30;3.67;;;;;;;;;;10617736;27;20023;-63
2022/03/06 13:34:15;;;;;;;15.35;4.25;;;;;;;;;;10617785;27;20027;-63
2022/03/06 13:39:18;;;;;;;9.75;3.75;;;;;;;;;;10616831;27;20088;-63
2022/03/06 13:44:19;;;;;;;10.10;3.92;;;;;;;;;;10617447;27;20382;-63
2022/03/06 13:49:24;;;;;;;9.55;3.80;;;;;;;;;;10617364;27;20023;-63
2022/03/06 13:54:31;;;;;;;6.53;3.58;;;;;;;;;;10617355;28;20054;-63
2022/03/06 13:59:33;;;;;;;8.13;3.78;;;;;;;;;;10614191;27;20103;-63
2022/03/06 14:04:33;;;;;;;6.72;3.72;;;;;;;;;;10616711;28;20488;-63
2022/03/06 14:09:34;;;;;;;6.35;3.58;;;;;;;;;;10595968;28;20020;-63
2022/03/06 14:14:40;;;;;;;9.05;3.58;;;;;;;;;;10617553;28;20453;-63
2022/03/06 14:20:00;;;;;;;5.38;3.50;;;;;;;;;;10616894;27;20088;-63
2022/03/06 14:25:00;;;;;;;5.03;3.38;;;;;;;;;;10617107;28;20020;-63
2022/03/06 14:30:03;;;;;;;7.40;3.63;;;;;;;;;;10616613;27;20019;-63
2022/03/06 14:35:04;;;;;;;5.70;3.28;;;;;;;;;;10616661;28;20424;-63
2022/03/06 14:40:05;;;;;;;8.77;3.50;;;;;;;;;;10597476;28;20428;-63
2022/03/06 14:45:06;;;;;;;9.00;3.75;;;;;;;;;;10615925;28;20020;-63
2022/03/06 14:50:07;;;;;;;7.80;3.35;;;;;;;;;;10621523;27;20110;-63
2022/03/06 14:55:07;;;;;;;5.47;3.30;;;;;;;;;;10623893;27;20110;-63
2022/03/06 15:00:09;;;;;;;4.77;3.33;;;;;;;;;;10623482;27;20019;-63
2022/03/06 15:05:09;;;;;;;5.03;3.80;;;;;;;;;;10623818;27;20463;-63
2022/03/06 15:10:10;;;;;;;5.03;3.27;;;;;;;;;;10620242;27;20019;-63
2022/03/06 15:15:10;;;;;;;6.60;3.63;;;;;;;;;;10619733;27;21006;-62
2022/03/06 15:20:11;;;;;;;5.90;3.33;;;;;;;;;;10623201;27;20424;-63
2022/03/06 15:25:11;;;;;;;7.65;3.58;;;;;;;;;;10623050;27;20027;-63
2022/03/06 15:30:12;;;;;;;3.50;3.07;;;;;;;;;;10622696;27;20027;-63
2022/03/06 15:35:12;;;;;;;4.57;2.92;;;;;;;;;;10622980;27;20558;-63
2022/03/06 15:40:13;;;;;;;4.60;3.30;;;;;;;;;;10622014;27;20035;-63
2022/03/06 15:45:13;;;;;;;6.15;2.78;;;;;;;;;;10622119;27;20254;-63
2022/03/06 15:50:13;;;;;;;5.93;3.00;;;;;;;;;;10621849;27;20027;-63
2022/03/06 15:55:14;;;;;;;3.87;3.07;;;;;;;;;;10621563;27;20467;-63
2022/03/06 16:00:15;;;;;;;8.00;3.10;;;;;;;;;;10621500;27;20462;-63
2022/03/06 16:05:16;;;;;;;5.20;3.42;;;;;;;;;;10620937;27;20031;-62
2022/03/06 16:10:16;;;;;;;4.13;3.25;;;;;;;;;;10620797;27;20028;-63
2022/03/06 16:15:16;;;;;;;3.53;2.80;;;;;;;;;;10618316;27;20113;-63
2022/03/06 16:20:17;;;;;;;3.60;3.07;;;;;;;;;;10617389;27;20447;-63
2022/03/06 16:25:17;;;;;;;6.88;3.10;;;;;;;;;;10620180;27;20443;-62
2022/03/06 16:30:18;;;;;;;3.70;3.03;;;;;;;;;;10620475;27;20456;-63
2022/03/06 16:35:18;;;;;;;6.28;3.13;;;;;;;;;;10620409;27;20531;-63
2022/03/06 16:40:18;;;;;;;3.45;3.08;;;;;;;;;;10619491;27;20044;-62
2022/03/06 16:45:19;;;;;;;3.07;2.77;;;;;;;;;;10619646;27;20030;-63
2022/03/06 16:50:19;;;;;;;4.73;3.43;;;;;;;;;;10619260;27;21010;-63
2022/03/06 16:55:20;;;;;;;5.13;3.50;;;;;;;;;;10619742;27;20383;-63
2022/03/06 17:00:20;;;;;;;5.30;3.40;;;;;;;;;;10618716;27;20451;-63
2022/03/06 17:05:20;;;;;;;3.97;3.00;;;;;;;;;;10618699;27;20030;-63
2022/03/06 17:10:21;;;;;;;6.35;3.70;;;;;;;;;;10617603;27;20030;-63
2022/03/06 17:15:22;;;;;;;8.10;3.97;;;;;;;;;;10617963;27;20424;-63
2022/03/06 17:20:23;;;;;;;6.63;3.25;;;;;;;;;;10614586;27;20451;-62
2022/03/06 17:25:24;;;;;;;4.53;3.53;;;;;;;;;;10614588;27;20415;-63
2022/03/06 17:30:24;;;;;;;6.63;3.60;;;;;;;;;;10617935;27;20023;-63
2022/03/06 17:35:24;;;;;;;5.53;3.53;;;;;;;;;;10618134;27;20470;-63
2022/03/06 17:40:25;;;;;;;4.88;3.40;;;;;;;;;;10617014;27;20175;-63
2022/03/06 17:45:26;;;;;;;8.10;3.80;;;;;;;;;;10616950;27;20039;-63
2022/03/06 17:50:26;;;;;;;7.40;3.80;;;;;;;;;;10616806;27;20059;-62
2022/03/06 17:55:27;;;;;;;6.68;3.53;;;;;;;;;;10617150;28;20099;-63
2022/03/06 18:00:27;;;;;;;5.93;3.25;;;;;;;;;;10618133;27;20331;-63
2022/03/06 18:05:28;;;;;;;6.05;3.53;;;;;;;;;;10617741;28;20030;-63
2022/03/06 18:10:28;;;;;;;7.28;3.50;;;;;;;;;;10598137;28;20489;-62
2022/03/06 18:15:29;;;;;;;7.88;4.38;;;;;;;;;;10617150;28;20027;-64
2022/03/06 18:20:31;;;;;;;5.18;4.03;;;;;;;;;;10616506;27;20470;-63
2022/03/06 18:25:31;;;;;;;8.88;3.90;;;;;;;;;;10620966;27;20050;-63
2022/03/06 18:30:56;;;;;;;9.02;4.13;;;;;;;;;;10621444;27;20055;-63
2022/03/06 18:35:56;;;;;;;9.82;3.92;;;;;;;;;;10592162;27;20114;-63
2022/03/06 18:40:57;;;;;;;10.32;4.03;;;;;;;;;;10623063;27;20066;-63
2022/03/06 18:45:57;;;;;;;7.93;3.77;;;;;;;;;;10624097;27;20023;-62
2022/03/06 18:50:58;;;;;;;16.77;4.32;;;;;;;;;;10624553;27;20435;-64
2022/03/06 18:56:01;;;;;;;18.20;4.20;;;;;;;;;;10623438;27;20454;-63
2022/03/06 19:01:02;;;;;;;9.82;3.92;;;;;;;;;;10623583;27;20447;-63
2022/03/06 19:06:03;;;;;;;6.88;4.07;;;;;;;;;;10623026;27;20039;-64
2022/03/06 19:11:04;;;;;;;14.73;4.57;;;;;;;;;;10622928;27;20371;-64
2022/03/06 19:16:06;;;;;;;14.43;4.22;;;;;;;;;;10622768;27;20027;-64
2022/03/06 19:21:06;;;;;;;10.02;3.90;;;;;;;;;;10622575;27;20378;-64
2022/03/06 19:26:06;;;;;;;15.75;3.85;;;;;;;;;;10622523;27;20038;-64
2022/03/06 19:31:07;;;;;;;11.73;3.77;;;;;;;;;;10619233;27;20473;-64
2022/03/06 19:36:07;;;;;;;17.17;4.20;;;;;;;;;;10621937;27;20458;-63
2022/03/06 19:41:08;;;;;;;12.93;4.43;;;;;;;;;;10618789;27;20783;-64
2022/03/06 19:46:08;;;;;;;11.57;4.75;;;;;;;;;;10621814;27;20382;-64
2022/03/06 19:51:09;;;;;;;11.83;4.03;;;;;;;;;;10621939;27;20015;-64
2022/03/06 19:56:09;;;;;;;12.33;4.13;;;;;;;;;;10622031;27;20477;-64
2022/03/06 20:01:11;;;;;;;10.10;4.80;;;;;;;;;;10621890;27;20431;-64
2022/03/06 20:06:11;;;;;;;11.80;4.40;;;;;;;;;;10621620;27;20027;-64
2022/03/06 20:11:12;;;;;;;6.38;3.90;;;;;;;;;;10621139;27;20083;-64
2022/03/06 20:16:12;;;;;;;10.32;4.40;;;;;;;;;;10620698;27;20110;-64
2022/03/06 20:21:15;;;;;;;8.47;4.20;;;;;;;;;;10621313;27;20023;-64
2022/03/06 20:26:17;;;;;;;12.38;3.90;;;;;;;;;;10620592;27;20463;-64
2022/03/06 20:31:18;;;;;;;5.88;3.80;;;;;;;;;;10620706;27;20025;-63
2022/03/06 20:36:19;;;;;;;10.77;4.05;;;;;;;;;;10619966;27;20038;-64
2022/03/06 20:41:19;;;;;;;7.70;3.60;;;;;;;;;;10616419;27;20039;-64
2022/03/06 20:46:24;;;;;;;6.70;3.70;;;;;;;;;;10619237;27;20042;-64
2022/03/06 20:51:25;;;;;;;6.18;3.97;;;;;;;;;;10616282;27;20423;-63
2022/03/06 20:56:26;;;;;;;5.80;3.70;;;;;;;;;;10618962;27;20023;-64
2022/03/06 21:01:27;;;;;;;4.00;3.58;;;;;;;;;;10619267;27;20046;-64
2022/03/06 21:06:27;;;;;;;10.00;4.17;;;;;;;;;;10618669;27;20030;-64
2022/03/06 21:11:27;;;;;;;5.53;3.87;;;;;;;;;;10618935;27;20428;-64
2022/03/06 21:16:28;;;;;;;7.10;4.30;;;;;;;;;;10618191;27;20023;-64
2022/03/06 21:21:28;;;;;;;5.13;3.60;;;;;;;;;;10618025;27;20053;-64
2022/03/06 21:26:29;;;;;;;10.98;3.90;;;;;;;;;;10616858;27;20023;-62
2022/03/06 21:31:30;;;;;;;10.63;3.65;;;;;;;;;;10616386;27;20405;-63
2022/03/06 21:36:31;;;;;;;6.60;3.90;;;;;;;;;;10618445;27;20029;-63
2022/03/06 21:41:31;;;;;;;9.67;3.90;;;;;;;;;;10617471;27;20096;-63
2022/03/06 21:46:31;;;;;;;7.18;4.00;;;;;;;;;;10617194;27;20611;-63
2022/03/06 21:51:32;;;;;;;6.67;3.93;;;;;;;;;;10611321;27;20020;-63
2022/03/06 21:56:32;;;;;;;6.45;3.45;;;;;;;;;;10616432;27;20435;-63
2022/03/06 22:01:33;;;;;;;8.43;3.60;;;;;;;;;;10617525;28;20027;-62
2022/03/06 22:06:34;;;;;;;6.05;3.80;;;;;;;;;;10616703;27;20540;-62
2022/03/06 22:11:35;;;;;;;8.15;3.72;;;;;;;;;;10617308;28;20030;-63
2022/03/06 22:16:35;;;;;;;5.70;3.50;;;;;;;;;;10616783;27;20467;-63
2022/03/06 22:21:36;;;;;;;4.28;3.65;;;;;;;;;;10616682;28;20034;-63
2022/03/06 22:26:36;;;;;;;4.95;3.58;;;;;;;;;;10616914;27;20042;-63
2022/03/06 22:31:37;;;;;;;5.97;3.37;;;;;;;;;;10616845;28;20492;-63
2022/03/06 22:36:37;;;;;;;9.10;3.67;;;;;;;;;;10616286;27;20446;-63
2022/03/06 22:41:38;;;;;;;9.07;3.67;;;;;;;;;;10615978;28;20370;-63
2022/03/06 22:46:38;;;;;;;5.43;3.50;;;;;;;;;;10615511;27;20047;-62
2022/03/06 22:51:39;;;;;;;4.80;3.13;;;;;;;;;;10609787;28;20023;-62
2022/03/06 22:56:39;;;;;;;4.45;3.13;;;;;;;;;;10614496;27;20364;-62
2022/03/06 23:01:40;;;;;;;5.97;3.25;;;;;;;;;;10615792;28;20050;-62
2022/03/06 23:12:04;;;;;;;5.10;3.33;;;;;;;;;;10622814;27;20051;-62
2022/03/06 23:17:06;;;;;;;6.57;3.38;;;;;;;;;;10623512;27;20023;-62
2022/03/06 23:22:08;;;;;;;4.78;3.15;;;;;;;;;;10603189;27;20030;-62
2022/03/06 23:27:08;;;;;;;4.45;3.42;;;;;;;;;;10621008;27;20043;-62
2022/03/06 23:32:09;;;;;;;5.07;3.22;;;;;;;;;;10622467;27;20442;-62
2022/03/06 23:37:09;;;;;;;6.77;3.23;;;;;;;;;;10622057;27;20046;-62
2022/03/06 23:42:09;;;;;;;3.33;2.83;;;;;;;;;;10622082;27;20407;-63
2022/03/06 23:47:10;;;;;;;8.17;3.47;;;;;;;;;;10621680;27;20110;-62
2022/03/06 23:52:10;;;;;;;4.13;3.20;;;;;;;;;;10618612;27;20023;-62
2022/03/06 23:57:12;;;;;;;4.38;2.97;;;;;;;;;;10621549;27;20752;-62
